createdAt,value
2017-01-19T00:00:10.720Z,0
2017-01-19T00:00:51.179Z,0
2017-01-19T00:01:31.751Z,0
2017-01-19T00:02:12.496Z,0
2017-01-19T00:02:52.983Z,0
2017-01-19T00:03:33.562Z,0
2017-01-19T00:04:14.233Z,0
2017-01-19T00:04:54.734Z,0
2017-01-19T00:05:35.145Z,0
2017-01-19T00:06:15.910Z,0
2017-01-19T00:06:56.469Z,0
2017-01-19T00:07:37.079Z,0
2017-01-19T00:08:17.488Z,0
2017-01-19T00:08:58.064Z,0
2017-01-19T00:09:39.061Z,0
2017-01-19T00:10:19.738Z,0
2017-01-19T00:11:00.276Z,0
2017-01-19T00:11:40.930Z,0
2017-01-19T00:12:21.388Z,0
2017-01-19T00:13:01.921Z,0
2017-01-19T00:13:42.361Z,0
2017-01-19T00:14:22.903Z,0
2017-01-19T00:15:03.406Z,0
2017-01-19T00:15:43.999Z,0
2017-01-19T00:16:24.390Z,0
2017-01-19T00:17:04.969Z,0
2017-01-19T00:17:45.459Z,0
2017-01-19T00:18:25.974Z,0
2017-01-19T00:19:06.508Z,0
2017-01-19T00:19:47.315Z,0
2017-01-19T00:20:27.673Z,0
2017-01-19T00:21:09.014Z,0
2017-01-19T00:21:49.778Z,0
2017-01-19T00:22:30.541Z,0
2017-01-19T00:23:11.024Z,0
2017-01-19T00:23:51.680Z,0
2017-01-19T00:24:32.140Z,0
2017-01-19T00:25:12.784Z,0
2017-01-19T00:25:53.248Z,0
2017-01-19T00:26:33.821Z,0
2017-01-19T00:27:14.301Z,0
2017-01-19T00:27:55.082Z,0
2017-01-19T00:28:35.598Z,0
2017-01-19T00:29:16.106Z,0
2017-01-19T00:29:56.578Z,0
2017-01-19T00:30:37.116Z,0
2017-01-19T00:31:17.555Z,0
2017-01-19T00:31:58.019Z,0
2017-01-19T00:32:38.561Z,0
2017-01-19T00:33:19.070Z,0
2017-01-19T00:33:59.495Z,0
2017-01-19T00:34:40.015Z,0
2017-01-19T00:35:20.464Z,0
2017-01-19T00:36:00.955Z,0
2017-01-19T00:36:41.441Z,0
2017-01-19T00:37:21.949Z,0
2017-01-19T00:38:02.480Z,0
2017-01-19T00:38:42.996Z,0
2017-01-19T00:39:23.509Z,0
2017-01-19T00:40:03.969Z,0
2017-01-19T00:40:44.494Z,0
2017-01-19T00:41:24.965Z,0
2017-01-19T00:42:05.481Z,0
2017-01-19T00:42:46.141Z,0
2017-01-19T00:43:26.602Z,0
2017-01-19T00:44:07.136Z,0
2017-01-19T00:44:47.671Z,0
2017-01-19T00:45:28.059Z,0
2017-01-19T00:46:08.686Z,0
2017-01-19T00:46:49.110Z,0
2017-01-19T00:47:29.568Z,0
2017-01-19T00:48:10.089Z,0
2017-01-19T00:48:50.702Z,0
2017-01-19T00:49:31.454Z,0
2017-01-19T00:50:11.955Z,0
2017-01-19T00:50:52.451Z,0
2017-01-19T00:51:32.980Z,0
2017-01-19T00:52:13.560Z,0
2017-01-19T00:52:53.981Z,0
2017-01-19T00:53:34.556Z,0
2017-01-19T00:54:15.015Z,0
2017-01-19T00:54:55.435Z,0
2017-01-19T00:55:35.920Z,0
2017-01-19T00:56:16.385Z,0
2017-01-19T00:56:56.914Z,0
2017-01-19T00:57:37.497Z,0
2017-01-19T00:58:17.889Z,0
2017-01-19T00:58:58.426Z,0
2017-01-19T00:59:38.941Z,0
2017-01-19T01:00:19.338Z,0
2017-01-19T01:00:59.850Z,0
2017-01-19T01:01:40.293Z,0
2017-01-19T01:02:20.786Z,0
2017-01-19T01:03:01.314Z,0
2017-01-19T01:03:41.823Z,0
2017-01-19T01:04:22.354Z,0
2017-01-19T01:05:02.943Z,0
2017-01-19T01:05:43.469Z,0
2017-01-19T01:06:23.982Z,0
2017-01-19T01:07:04.397Z,0
2017-01-19T01:07:44.891Z,0
2017-01-19T01:08:25.391Z,0
2017-01-19T01:09:05.836Z,0
2017-01-19T01:09:46.574Z,0
2017-01-19T01:10:26.968Z,0
2017-01-19T01:11:07.448Z,0
2017-01-19T01:11:47.883Z,0
2017-01-19T01:12:28.379Z,0
2017-01-19T01:13:08.851Z,0
2017-01-19T01:13:49.336Z,0
2017-01-19T01:14:29.920Z,0
2017-01-19T01:15:10.319Z,0
2017-01-19T01:15:50.834Z,0
2017-01-19T01:16:31.364Z,0
2017-01-19T01:18:44.558Z,0
2017-01-19T01:19:25.041Z,0
2017-01-19T01:20:05.513Z,0
2017-01-19T01:20:46.028Z,0
2017-01-19T01:21:26.517Z,0
2017-01-19T01:22:06.983Z,0
2017-01-19T01:22:47.454Z,0
2017-01-19T01:23:27.911Z,0
2017-01-19T01:24:08.500Z,0
2017-01-19T01:24:48.968Z,0
2017-01-19T01:25:29.473Z,0
2017-01-19T01:26:09.890Z,0
2017-01-19T01:26:50.410Z,0
2017-01-19T01:27:31.060Z,0
2017-01-19T01:28:11.755Z,0
2017-01-19T01:28:52.169Z,0
2017-01-19T01:29:32.695Z,0
2017-01-19T01:30:13.232Z,0
2017-01-19T01:30:53.651Z,0
2017-01-19T01:31:34.139Z,0
2017-01-19T01:32:14.622Z,0
2017-01-19T01:32:55.099Z,0
2017-01-19T01:33:35.549Z,0
2017-01-19T01:34:16.073Z,0
2017-01-19T01:34:56.654Z,0
2017-01-19T01:35:37.067Z,0
2017-01-19T01:36:17.648Z,0
2017-01-19T01:36:58.127Z,0
2017-01-19T01:37:38.627Z,0
2017-01-19T01:38:19.172Z,0
2017-01-19T01:38:59.619Z,0
2017-01-19T01:39:40.089Z,0
2017-01-19T01:40:20.570Z,0
2017-01-19T01:41:01.065Z,0
2017-01-19T01:41:41.519Z,0
2017-01-19T01:42:22.083Z,0
2017-01-19T01:43:02.534Z,0
2017-01-19T01:43:42.949Z,0
2017-01-19T01:44:23.461Z,0
2017-01-19T01:45:04.056Z,0
2017-01-19T01:45:44.412Z,0
2017-01-19T01:46:24.908Z,0
2017-01-19T01:47:05.534Z,0
2017-01-19T01:47:45.999Z,0
2017-01-19T01:48:26.437Z,0
2017-01-19T01:49:06.989Z,0
2017-01-19T01:49:47.462Z,0
2017-01-19T01:50:27.977Z,0
2017-01-19T01:51:08.508Z,0
2017-01-19T01:51:48.964Z,0
2017-01-19T01:52:29.447Z,0
2017-01-19T01:53:09.998Z,0
2017-01-19T01:53:50.457Z,0
2017-01-19T01:54:30.957Z,0
2017-01-19T01:55:11.425Z,0
2017-01-19T01:55:51.979Z,0
2017-01-19T01:56:32.448Z,0
2017-01-19T01:57:12.938Z,0
2017-01-19T01:57:53.425Z,0
2017-01-19T01:58:33.857Z,0
2017-01-19T01:59:14.427Z,0
2017-01-19T01:59:54.817Z,0
2017-01-19T02:00:35.406Z,0
2017-01-19T02:01:15.920Z,0
2017-01-19T02:01:56.411Z,0
2017-01-19T02:02:37.060Z,0
2017-01-19T02:03:17.663Z,0
2017-01-19T02:03:58.182Z,0
2017-01-19T02:04:38.655Z,0
2017-01-19T02:05:19.194Z,0
2017-01-19T02:05:59.706Z,0
2017-01-19T02:06:40.166Z,0
2017-01-19T02:07:20.614Z,0
2017-01-19T02:08:01.270Z,0
2017-01-19T02:08:41.777Z,0
2017-01-19T02:09:22.315Z,0
2017-01-19T02:10:02.893Z,0
2017-01-19T02:10:43.440Z,0
2017-01-19T02:11:23.981Z,0
2017-01-19T02:12:04.420Z,0
2017-01-19T02:12:44.879Z,0
2017-01-19T02:13:25.412Z,0
2017-01-19T02:14:05.903Z,0
2017-01-19T02:14:46.375Z,0
2017-01-19T02:15:26.950Z,0
2017-01-19T02:16:07.483Z,0
2017-01-19T02:16:47.981Z,0
2017-01-19T02:17:28.496Z,0
2017-01-19T02:18:08.975Z,0
2017-01-19T02:18:49.477Z,0
2017-01-19T02:19:29.948Z,0
2017-01-19T02:20:10.407Z,0
2017-01-19T02:20:50.869Z,0
2017-01-19T02:21:31.370Z,0
2017-01-19T02:22:11.892Z,0
2017-01-19T02:22:52.518Z,0
2017-01-19T02:23:32.975Z,0
2017-01-19T02:24:13.502Z,0
2017-01-19T02:24:53.956Z,0
2017-01-19T02:25:34.392Z,0
2017-01-19T02:26:14.894Z,0
2017-01-19T02:26:55.320Z,0
2017-01-19T02:27:35.901Z,0
2017-01-19T02:28:16.306Z,0
2017-01-19T02:28:56.918Z,0
2017-01-19T02:29:37.359Z,0
2017-01-19T02:30:17.864Z,0
2017-01-19T02:30:58.375Z,0
2017-01-19T02:31:38.943Z,0
2017-01-19T02:32:19.573Z,0
2017-01-19T02:33:00.023Z,0
2017-01-19T02:33:40.722Z,0
2017-01-19T02:34:21.268Z,0
2017-01-19T02:35:01.846Z,0
2017-01-19T02:35:42.310Z,0
2017-01-19T02:36:23.173Z,0
2017-01-19T02:37:03.493Z,0
2017-01-19T02:37:44.042Z,0
2017-01-19T02:38:24.608Z,0
2017-01-19T02:39:05.047Z,0
2017-01-19T02:39:45.518Z,0
2017-01-19T02:40:25.951Z,0
2017-01-19T02:41:06.448Z,0
2017-01-19T02:41:46.944Z,0
2017-01-19T02:42:27.462Z,0
2017-01-19T02:43:07.943Z,0
2017-01-19T02:43:48.389Z,0
2017-01-19T02:44:28.927Z,0
2017-01-19T02:45:09.449Z,0
2017-01-19T02:45:49.985Z,0
2017-01-19T02:46:30.440Z,0
2017-01-19T02:47:10.934Z,0
2017-01-19T02:47:51.397Z,0
2017-01-19T02:48:31.911Z,0
2017-01-19T02:49:12.396Z,0
2017-01-19T02:49:52.991Z,0
2017-01-19T02:50:33.358Z,0
2017-01-19T02:51:13.859Z,0
2017-01-19T02:51:54.371Z,0
2017-01-19T02:52:34.859Z,0
2017-01-19T02:53:15.397Z,0
2017-01-19T02:53:55.794Z,0
2017-01-19T02:54:36.357Z,0
2017-01-19T02:55:16.851Z,0
2017-01-19T02:55:57.307Z,0
2017-01-19T02:56:37.855Z,0
2017-01-19T02:57:18.380Z,0
2017-01-19T02:57:58.769Z,0
2017-01-19T02:58:39.223Z,0
2017-01-19T02:59:19.702Z,0
2017-01-19T03:00:00.180Z,0
2017-01-19T03:00:40.694Z,0
2017-01-19T03:01:21.192Z,0
2017-01-19T03:02:01.624Z,0
2017-01-19T03:02:42.136Z,0
2017-01-19T03:03:22.591Z,0
2017-01-19T03:04:03.130Z,0
2017-01-19T03:04:43.613Z,0
2017-01-19T03:05:24.164Z,0
2017-01-19T03:06:04.620Z,0
2017-01-19T03:06:45.102Z,0
2017-01-19T03:07:25.576Z,0
2017-01-19T03:08:06.067Z,0
2017-01-19T03:08:46.547Z,0
2017-01-19T03:09:27.172Z,0
2017-01-19T03:10:07.627Z,0
2017-01-19T03:10:48.119Z,0
2017-01-19T03:11:28.631Z,0
2017-01-19T03:12:09.065Z,0
2017-01-19T03:12:49.609Z,0
2017-01-19T03:13:30.074Z,0
2017-01-19T03:14:10.574Z,0
2017-01-19T03:14:51.023Z,0
2017-01-19T03:15:31.528Z,0
2017-01-19T03:16:12.043Z,0
2017-01-19T03:16:52.489Z,0
2017-01-19T03:17:33.001Z,0
2017-01-19T03:18:13.521Z,0
2017-01-19T03:18:54.004Z,0
2017-01-19T03:19:34.511Z,0
2017-01-19T03:20:14.946Z,0
2017-01-19T03:20:55.468Z,0
2017-01-19T03:21:35.938Z,0
2017-01-19T03:22:16.423Z,0
2017-01-19T03:22:56.921Z,0
2017-01-19T03:23:37.401Z,0
2017-01-19T03:24:17.875Z,0
2017-01-19T03:24:58.362Z,0
2017-01-19T03:25:38.867Z,0
2017-01-19T03:26:19.332Z,0
2017-01-19T03:26:59.821Z,0
2017-01-19T03:27:40.286Z,0
2017-01-19T03:28:20.755Z,0
2017-01-19T03:29:01.277Z,0
2017-01-19T03:29:41.741Z,0
2017-01-19T03:30:22.296Z,0
2017-01-19T03:31:02.716Z,0
2017-01-19T03:31:43.265Z,0
2017-01-19T03:32:23.713Z,0
2017-01-19T03:33:04.184Z,0
2017-01-19T03:33:44.724Z,0
2017-01-19T03:34:25.186Z,0
2017-01-19T03:35:05.674Z,0
2017-01-19T03:35:46.169Z,0
2017-01-19T03:36:26.634Z,0
2017-01-19T03:37:07.135Z,0
2017-01-19T03:37:47.599Z,0
2017-01-19T03:38:28.095Z,0
2017-01-19T03:39:08.627Z,0
2017-01-19T03:39:49.157Z,0
2017-01-19T03:40:29.644Z,0
2017-01-19T03:41:10.142Z,0
2017-01-19T03:41:50.605Z,0
2017-01-19T03:42:31.084Z,0
2017-01-19T03:43:11.574Z,0
2017-01-19T03:43:52.071Z,0
2017-01-19T03:44:32.581Z,0
2017-01-19T03:45:13.150Z,0
2017-01-19T03:45:53.676Z,0
2017-01-19T03:46:34.066Z,0
2017-01-19T03:47:14.547Z,0
2017-01-19T03:47:55.059Z,0
2017-01-19T03:48:35.536Z,0
2017-01-19T03:49:16.012Z,0
2017-01-19T03:49:56.458Z,0
2017-01-19T03:50:37.005Z,0
2017-01-19T03:51:17.413Z,0
2017-01-19T03:51:57.912Z,0
2017-01-19T03:52:38.509Z,0
2017-01-19T03:53:18.962Z,0
2017-01-19T03:53:59.463Z,0
2017-01-19T03:54:39.932Z,0
2017-01-19T03:55:20.455Z,0
2017-01-19T03:56:00.996Z,0
2017-01-19T03:56:41.441Z,0
2017-01-19T03:57:21.934Z,0
2017-01-19T03:58:02.385Z,0
2017-01-19T03:58:42.908Z,0
2017-01-19T03:59:23.337Z,0
2017-01-19T04:00:03.887Z,0
2017-01-19T04:00:44.359Z,0
2017-01-19T04:01:24.807Z,0
2017-01-19T04:02:05.341Z,0
2017-01-19T04:02:45.884Z,0
2017-01-19T04:03:26.358Z,0
2017-01-19T04:04:06.798Z,0
2017-01-19T04:04:47.270Z,0
2017-01-19T04:05:27.784Z,0
2017-01-19T04:06:08.233Z,0
2017-01-19T04:06:48.782Z,0
2017-01-19T04:07:29.266Z,0
2017-01-19T04:08:09.774Z,0
2017-01-19T04:08:50.192Z,0
2017-01-19T04:09:30.720Z,0
2017-01-19T04:10:11.156Z,0
2017-01-19T04:10:51.667Z,0
2017-01-19T04:11:32.186Z,0
2017-01-19T04:12:12.701Z,0
2017-01-19T04:12:53.163Z,0
2017-01-19T04:13:33.626Z,0
2017-01-19T04:14:14.079Z,0
2017-01-19T04:14:54.594Z,0
2017-01-19T04:15:35.108Z,0
2017-01-19T04:16:15.580Z,0
2017-01-19T04:16:56.063Z,0
2017-01-19T04:17:36.529Z,0
2017-01-19T04:18:17.015Z,0
2017-01-19T04:18:57.479Z,0
2017-01-19T04:19:38.028Z,0
2017-01-19T04:20:18.473Z,0
2017-01-19T04:20:58.926Z,0
2017-01-19T04:21:39.411Z,0
2017-01-19T04:22:19.886Z,0
2017-01-19T04:23:00.396Z,0
2017-01-19T04:23:40.872Z,0
2017-01-19T04:24:21.319Z,0
2017-01-19T04:25:01.846Z,0
2017-01-19T04:25:42.315Z,0
2017-01-19T04:26:22.814Z,0
2017-01-19T04:27:03.315Z,0
2017-01-19T04:27:43.792Z,0
2017-01-19T04:28:24.402Z,0
2017-01-19T04:29:04.965Z,0
2017-01-19T04:29:45.423Z,0
2017-01-19T04:30:25.878Z,0
2017-01-19T04:31:06.372Z,0
2017-01-19T04:31:46.918Z,0
2017-01-19T04:32:27.400Z,0
2017-01-19T04:33:07.852Z,0
2017-01-19T04:33:48.364Z,0
2017-01-19T04:34:28.811Z,0
2017-01-19T04:35:09.309Z,0
2017-01-19T04:35:49.777Z,0
2017-01-19T04:36:30.378Z,0
2017-01-19T04:37:10.858Z,0
2017-01-19T04:37:51.312Z,0
2017-01-19T04:38:31.800Z,0
2017-01-19T04:39:12.279Z,0
2017-01-19T04:39:52.763Z,0
2017-01-19T04:40:33.255Z,0
2017-01-19T04:41:13.739Z,0
2017-01-19T04:41:54.260Z,0
2017-01-19T04:42:34.709Z,0
2017-01-19T04:43:15.180Z,0
2017-01-19T04:43:55.667Z,0
2017-01-19T04:44:36.146Z,0
2017-01-19T04:45:16.642Z,0
2017-01-19T04:45:57.137Z,0
2017-01-19T04:46:37.793Z,0
2017-01-19T04:47:18.301Z,0
2017-01-19T04:47:58.751Z,0
2017-01-19T04:48:39.452Z,0
2017-01-19T04:49:19.823Z,0
2017-01-19T04:50:00.311Z,0
2017-01-19T04:50:40.776Z,0
2017-01-19T04:51:21.383Z,0
2017-01-19T04:52:01.708Z,0
2017-01-19T04:52:42.187Z,0
2017-01-19T04:53:22.811Z,0
2017-01-19T04:54:03.268Z,0
2017-01-19T04:54:43.739Z,0
2017-01-19T04:55:24.406Z,0
2017-01-19T04:56:04.876Z,0
2017-01-19T04:56:45.364Z,0
2017-01-19T04:57:25.821Z,0
2017-01-19T04:58:06.298Z,0
2017-01-19T04:58:46.846Z,0
2017-01-19T04:59:27.398Z,0
2017-01-19T05:00:07.835Z,0
2017-01-19T05:00:48.381Z,0
2017-01-19T05:01:28.823Z,0
2017-01-19T05:02:09.337Z,0
2017-01-19T05:02:50.038Z,0
2017-01-19T05:03:30.499Z,0
2017-01-19T05:04:11.043Z,0
2017-01-19T05:04:51.460Z,0
2017-01-19T05:05:31.995Z,0
2017-01-19T05:06:12.436Z,0
2017-01-19T05:06:52.894Z,0
2017-01-19T05:07:33.383Z,0
2017-01-19T05:08:13.918Z,0
2017-01-19T05:08:54.374Z,0
2017-01-19T05:09:34.880Z,0
2017-01-19T05:10:15.390Z,0
2017-01-19T05:10:55.839Z,0
2017-01-19T05:11:36.343Z,0
2017-01-19T05:12:16.813Z,0
2017-01-19T05:12:57.330Z,0
2017-01-19T05:13:37.824Z,0
2017-01-19T05:14:18.283Z,0
2017-01-19T05:14:58.776Z,0
2017-01-19T05:15:39.330Z,0
2017-01-19T05:16:19.742Z,0
2017-01-19T05:17:00.298Z,0
2017-01-19T05:17:40.796Z,0
2017-01-19T05:18:21.287Z,0
2017-01-19T05:19:01.711Z,0
2017-01-19T05:19:42.242Z,0
2017-01-19T05:20:22.699Z,0
2017-01-19T05:21:03.168Z,0
2017-01-19T05:21:43.661Z,0
2017-01-19T05:22:24.141Z,0
2017-01-19T05:23:04.621Z,0
2017-01-19T05:23:45.137Z,0
2017-01-19T05:24:25.608Z,0
2017-01-19T05:25:06.157Z,0
2017-01-19T05:25:46.549Z,0
2017-01-19T05:26:27.014Z,0
2017-01-19T05:27:07.496Z,0
2017-01-19T05:27:47.958Z,0
2017-01-19T05:28:28.559Z,0
2017-01-19T05:29:09.016Z,0
2017-01-19T05:29:49.471Z,0
2017-01-19T05:30:29.998Z,0
2017-01-19T05:31:10.442Z,0
2017-01-19T05:31:50.940Z,0
2017-01-19T05:32:31.421Z,0
2017-01-19T05:33:11.893Z,0
2017-01-19T05:33:52.393Z,0
2017-01-19T05:34:32.885Z,0
2017-01-19T05:35:13.340Z,0
2017-01-19T05:35:53.947Z,0
2017-01-19T05:36:34.369Z,0
2017-01-19T05:37:14.872Z,0
2017-01-19T05:37:55.379Z,0
2017-01-19T05:38:35.878Z,0
2017-01-19T05:39:16.416Z,0
2017-01-19T05:39:56.888Z,0
2017-01-19T05:40:37.318Z,0
2017-01-19T05:41:17.855Z,0
2017-01-19T05:41:58.289Z,0
2017-01-19T05:42:38.773Z,0
2017-01-19T05:43:19.257Z,0
2017-01-19T05:43:59.774Z,0
2017-01-19T05:44:40.206Z,0
2017-01-19T05:45:20.694Z,0
2017-01-19T05:46:01.170Z,0
2017-01-19T05:46:41.721Z,0
2017-01-19T05:47:24.523Z,0
2017-01-19T05:49:24.227Z,0
2017-01-19T05:50:04.670Z,0
2017-01-19T05:50:45.145Z,0
2017-01-19T05:51:25.632Z,0
2017-01-19T05:52:06.087Z,0
2017-01-19T05:52:46.575Z,0
2017-01-19T05:53:27.290Z,0
2017-01-19T05:54:07.823Z,0
2017-01-19T05:54:48.307Z,0
2017-01-19T05:55:28.945Z,0
2017-01-19T05:56:09.391Z,0
2017-01-19T05:56:49.775Z,0
2017-01-19T05:57:30.592Z,0
2017-01-19T05:58:11.012Z,0
2017-01-19T05:58:51.649Z,0
2017-01-19T05:59:32.122Z,0
2017-01-19T06:00:12.527Z,0
2017-01-19T06:00:53.058Z,0
2017-01-19T06:01:33.589Z,0
2017-01-19T06:02:14.243Z,0
2017-01-19T06:02:55.399Z,0
2017-01-19T06:03:35.644Z,0
2017-01-19T06:04:16.165Z,0
2017-01-19T06:04:56.756Z,0
2017-01-19T06:05:37.341Z,0
2017-01-19T06:06:17.742Z,0
2017-01-19T06:06:58.232Z,0
2017-01-19T06:09:26.933Z,0
2017-01-19T06:10:07.835Z,0
2017-01-19T06:10:48.397Z,0
2017-01-19T06:11:28.812Z,0
2017-01-19T06:12:09.388Z,0
2017-01-19T06:12:53.030Z,0
2017-01-19T06:13:30.968Z,0
2017-01-19T06:14:11.474Z,0
2017-01-19T06:14:52.066Z,0
2017-01-19T06:15:32.560Z,0
2017-01-19T06:16:13.083Z,0
2017-01-19T06:16:53.722Z,0
2017-01-19T06:17:34.316Z,0
2017-01-19T06:18:14.770Z,0
2017-01-19T06:18:56.554Z,0
2017-01-19T06:19:36.525Z,0
2017-01-19T06:20:18.382Z,0
2017-01-19T06:21:02.304Z,0
2017-01-19T06:21:42.906Z,0
2017-01-19T06:22:23.639Z,0
2017-01-19T06:23:04.294Z,0
2017-01-19T06:23:44.712Z,0
2017-01-19T06:24:25.196Z,0
2017-01-19T06:25:06.252Z,0
2017-01-19T06:25:46.803Z,0
2017-01-19T06:26:28.261Z,0
2017-01-19T06:27:08.728Z,0
2017-01-19T06:27:49.213Z,0
2017-01-19T06:28:30.142Z,0
2017-01-19T06:29:10.640Z,0
2017-01-19T06:29:51.354Z,0
2017-01-19T06:30:32.148Z,0
2017-01-19T06:31:12.701Z,0
2017-01-19T06:31:54.111Z,0
2017-01-19T06:32:34.327Z,0
2017-01-19T06:33:15.925Z,0
2017-01-19T06:33:56.398Z,0
2017-01-19T06:34:37.247Z,0
2017-01-19T06:35:18.087Z,0
2017-01-19T06:35:58.572Z,0
2017-01-19T06:36:42.214Z,0
2017-01-19T06:39:04.479Z,4
2017-01-19T06:39:45.350Z,4
2017-01-19T06:40:26.743Z,0
2017-01-19T06:41:09.672Z,0
2017-01-19T06:41:55.844Z,4
2017-01-19T06:42:38.535Z,4
2017-01-19T06:43:18.917Z,4
2017-01-19T06:43:59.780Z,4
2017-01-19T06:44:40.402Z,4
2017-01-19T06:45:20.915Z,4
2017-01-19T06:46:01.660Z,4
2017-01-19T06:46:41.901Z,4
2017-01-19T06:47:23.918Z,4
2017-01-19T06:48:04.367Z,4
2017-01-19T06:48:45.174Z,4
2017-01-19T06:49:25.637Z,8
2017-01-19T06:50:06.172Z,8
2017-01-19T06:50:46.962Z,8
2017-01-19T06:51:27.436Z,8
2017-01-19T06:52:07.950Z,8
2017-01-19T06:52:49.301Z,12
2017-01-19T06:53:30.018Z,12
2017-01-19T06:54:11.197Z,16
2017-01-19T06:54:52.368Z,16
2017-01-19T06:55:32.890Z,20
2017-01-19T06:56:14.020Z,20
2017-01-19T06:56:55.170Z,20
2017-01-19T06:57:35.724Z,20
2017-01-19T06:58:16.131Z,24
2017-01-19T06:58:57.964Z,24
2017-01-19T06:59:37.646Z,28
2017-01-19T07:00:18.322Z,32
2017-01-19T07:00:59.482Z,36
2017-01-19T07:01:40.896Z,36
2017-01-19T07:02:21.852Z,44
2017-01-19T07:03:02.256Z,44
2017-01-19T07:03:58.690Z,48
2017-01-19T07:04:45.826Z,52
2017-01-19T07:05:38.390Z,60
2017-01-19T07:06:18.525Z,64
2017-01-19T07:06:59.361Z,68
2017-01-19T07:07:39.887Z,72
2017-01-19T07:08:21.382Z,76
2017-01-19T07:10:35.439Z,92
2017-01-19T07:13:04.511Z,112
2017-01-19T07:13:44.942Z,124
2017-01-19T07:14:25.450Z,128
2017-01-19T07:15:06.053Z,136
2017-01-19T07:15:46.562Z,144
2017-01-19T07:16:27.004Z,148
2017-01-19T07:17:07.500Z,156
2017-01-19T07:17:47.977Z,164
2017-01-19T07:18:28.542Z,172
2017-01-19T07:19:09.005Z,176
2017-01-19T07:19:49.458Z,188
2017-01-19T07:20:29.965Z,196
2017-01-19T07:21:10.483Z,200
2017-01-19T07:21:50.986Z,212
2017-01-19T07:22:37.538Z,220
2017-01-19T07:23:17.916Z,228
2017-01-19T07:23:58.474Z,240
2017-01-19T07:24:38.956Z,244
2017-01-19T07:25:19.445Z,256
2017-01-19T07:26:00.009Z,264
2017-01-19T07:26:40.472Z,276
2017-01-19T07:27:20.954Z,280
2017-01-19T07:28:01.447Z,292
2017-01-19T07:28:41.929Z,300
2017-01-19T07:29:22.509Z,312
2017-01-19T07:30:03.056Z,320
2017-01-19T07:30:43.514Z,336
2017-01-19T07:31:24.021Z,344
2017-01-19T07:32:04.554Z,356
2017-01-19T07:32:45.047Z,364
2017-01-19T07:33:25.539Z,376
2017-01-19T07:34:06.027Z,384
2017-01-19T07:34:46.563Z,392
2017-01-19T07:35:27.017Z,404
2017-01-19T07:36:07.508Z,416
2017-01-19T07:36:48.025Z,424
2017-01-19T07:37:28.663Z,436
2017-01-19T07:38:09.150Z,444
2017-01-19T07:38:49.655Z,456
2017-01-19T07:39:30.111Z,468
2017-01-19T07:40:10.581Z,484
2017-01-19T07:40:51.036Z,488
2017-01-19T07:41:31.545Z,500
2017-01-19T07:42:11.996Z,516
2017-01-19T07:42:52.493Z,520
2017-01-19T07:43:33.008Z,536
2017-01-19T07:44:13.504Z,540
2017-01-19T07:44:53.992Z,548
2017-01-19T07:45:34.507Z,564
2017-01-19T07:46:15.011Z,580
2017-01-19T07:46:55.510Z,588
2017-01-19T07:47:36.057Z,592
2017-01-19T07:48:16.545Z,608
2017-01-19T07:48:57.007Z,620
2017-01-19T07:49:37.513Z,628
2017-01-19T07:50:18.004Z,644
2017-01-19T07:50:58.524Z,648
2017-01-19T07:51:39.003Z,660
2017-01-19T07:52:19.514Z,668
2017-01-19T07:53:00.034Z,676
2017-01-19T07:53:40.483Z,684
2017-01-19T07:54:21.031Z,704
2017-01-19T07:55:01.468Z,712
2017-01-19T07:55:42.028Z,720
2017-01-19T07:56:22.528Z,728
2017-01-19T07:57:02.970Z,736
2017-01-19T07:57:43.452Z,744
2017-01-19T07:58:23.929Z,756
2017-01-19T07:59:04.448Z,772
2017-01-19T07:59:44.879Z,776
2017-01-19T08:00:25.394Z,784
2017-01-19T08:01:05.975Z,796
2017-01-19T08:01:46.491Z,808
2017-01-19T08:02:26.933Z,816
2017-01-19T08:03:07.396Z,824
2017-01-19T08:03:47.926Z,832
2017-01-19T08:04:28.411Z,840
2017-01-19T08:05:08.875Z,848
2017-01-19T08:05:50.164Z,868
2017-01-19T08:06:30.654Z,872
2017-01-19T08:07:11.123Z,880
2017-01-19T08:07:51.701Z,884
2017-01-19T08:08:32.127Z,892
2017-01-19T08:09:12.642Z,900
2017-01-19T08:09:53.058Z,908
2017-01-19T08:10:33.590Z,916
2017-01-19T08:11:14.124Z,924
2017-01-19T08:11:54.585Z,932
2017-01-19T08:12:35.109Z,944
2017-01-19T08:13:15.595Z,940
2017-01-19T08:13:56.094Z,956
2017-01-19T08:14:36.583Z,968
2017-01-19T08:15:17.053Z,968
2017-01-19T08:15:57.581Z,976
2017-01-19T08:16:38.046Z,984
2017-01-19T08:17:18.528Z,988
2017-01-19T08:17:58.990Z,1000
2017-01-19T08:18:39.493Z,1008
2017-01-19T08:19:19.964Z,1008
2017-01-19T08:20:00.465Z,1020
2017-01-19T08:20:40.918Z,1024
2017-01-19T08:21:21.409Z,1032
2017-01-19T08:22:01.892Z,1036
2017-01-19T08:22:42.405Z,1044
2017-01-19T08:23:22.921Z,1052
2017-01-19T08:24:03.385Z,1064
2017-01-19T08:24:43.883Z,1064
2017-01-19T08:25:24.404Z,1068
2017-01-19T08:26:04.866Z,1080
2017-01-19T08:26:45.343Z,1084
2017-01-19T08:27:25.897Z,1100
2017-01-19T08:28:06.427Z,1100
2017-01-19T08:28:46.945Z,1104
2017-01-19T08:29:27.417Z,1108
2017-01-19T08:30:07.925Z,1104
2017-01-19T08:30:48.343Z,1116
2017-01-19T08:31:28.862Z,1124
2017-01-19T08:32:09.325Z,1132
2017-01-19T08:32:49.819Z,1144
2017-01-19T08:33:30.344Z,1140
2017-01-19T08:34:10.846Z,1144
2017-01-19T08:34:51.319Z,1152
2017-01-19T08:35:31.836Z,1156
2017-01-19T08:36:12.310Z,1164
2017-01-19T08:36:52.823Z,1168
2017-01-19T08:37:33.300Z,1172
2017-01-19T08:38:13.805Z,1176
2017-01-19T08:38:54.289Z,1180
2017-01-19T08:39:34.826Z,1180
2017-01-19T08:40:15.286Z,1188
2017-01-19T08:40:55.806Z,1192
2017-01-19T08:41:36.291Z,1200
2017-01-19T08:42:16.790Z,1200
2017-01-19T08:42:57.297Z,1208
2017-01-19T08:43:37.805Z,1212
2017-01-19T08:44:18.327Z,1212
2017-01-19T08:44:58.801Z,1216
2017-01-19T08:45:39.311Z,1220
2017-01-19T08:46:19.788Z,1232
2017-01-19T08:47:00.252Z,1232
2017-01-19T08:47:40.751Z,1236
2017-01-19T08:48:21.225Z,1240
2017-01-19T08:49:01.711Z,1240
2017-01-19T08:49:42.138Z,1244
2017-01-19T08:50:22.657Z,1248
2017-01-19T08:51:03.139Z,1252
2017-01-19T08:51:43.624Z,1252
2017-01-19T08:52:24.115Z,1256
2017-01-19T08:53:04.650Z,1264
2017-01-19T08:53:45.169Z,1264
2017-01-19T08:54:25.658Z,1276
2017-01-19T08:55:06.216Z,1272
2017-01-19T08:55:46.729Z,1280
2017-01-19T08:56:27.172Z,1280
2017-01-19T08:57:07.652Z,1284
2017-01-19T08:57:48.132Z,1288
2017-01-19T08:58:28.635Z,1292
2017-01-19T08:59:09.138Z,1296
2017-01-19T08:59:49.643Z,1300
2017-01-19T09:00:30.212Z,1304
2017-01-19T09:01:10.951Z,1304
2017-01-19T09:01:51.643Z,1308
2017-01-19T09:02:32.195Z,1308
2017-01-19T09:03:12.729Z,1312
2017-01-19T09:03:53.202Z,1312
2017-01-19T09:04:33.761Z,1316
2017-01-19T09:05:14.297Z,1320
2017-01-19T09:05:54.878Z,1320
2017-01-19T09:06:35.283Z,1328
2017-01-19T09:07:15.734Z,1328
2017-01-19T09:07:56.221Z,1332
2017-01-19T09:08:36.727Z,1336
2017-01-19T09:09:17.175Z,1336
2017-01-19T09:09:58.286Z,1340
2017-01-19T09:10:38.320Z,1340
2017-01-19T09:11:18.741Z,1344
2017-01-19T09:11:59.281Z,1348
2017-01-19T09:12:39.790Z,1344
2017-01-19T09:13:20.275Z,1348
2017-01-19T09:14:00.835Z,1356
2017-01-19T09:14:41.336Z,1364
2017-01-19T09:15:21.840Z,1356
2017-01-19T09:16:02.323Z,1364
2017-01-19T09:16:42.803Z,1368
2017-01-19T09:17:23.318Z,1368
2017-01-19T09:18:03.765Z,1372
2017-01-19T09:18:44.293Z,1372
2017-01-19T09:19:24.795Z,1376
2017-01-19T09:20:05.209Z,1376
2017-01-19T09:20:45.713Z,1372
2017-01-19T09:21:26.150Z,1376
2017-01-19T09:22:06.627Z,1376
2017-01-19T09:22:47.137Z,1376
2017-01-19T09:23:27.592Z,1384
2017-01-19T09:24:08.130Z,1384
2017-01-19T09:24:48.740Z,1388
2017-01-19T09:25:29.217Z,1408
2017-01-19T09:26:09.840Z,1396
2017-01-19T09:26:50.266Z,1400
2017-01-19T09:27:30.819Z,1400
2017-01-19T09:28:11.331Z,1400
2017-01-19T09:28:51.814Z,1404
2017-01-19T09:29:32.297Z,1404
2017-01-19T09:30:12.809Z,1408
2017-01-19T09:30:53.302Z,1412
2017-01-19T09:31:33.786Z,1412
2017-01-19T09:32:14.235Z,1424
2017-01-19T09:32:54.727Z,1424
2017-01-19T09:33:35.261Z,1416
2017-01-19T09:34:15.663Z,1424
2017-01-19T09:34:56.214Z,1428
2017-01-19T09:35:36.682Z,1428
2017-01-19T09:36:17.159Z,1424
2017-01-19T09:36:57.622Z,1424
2017-01-19T09:37:38.139Z,1424
2017-01-19T09:38:18.599Z,1436
2017-01-19T09:38:59.108Z,1432
2017-01-19T09:39:39.561Z,1440
2017-01-19T09:40:20.033Z,1424
2017-01-19T09:41:00.546Z,1440
2017-01-19T09:41:40.978Z,1440
2017-01-19T09:42:21.509Z,1440
2017-01-19T09:43:01.927Z,1452
2017-01-19T09:43:42.423Z,1448
2017-01-19T09:44:22.933Z,1456
2017-01-19T09:45:03.470Z,1456
2017-01-19T09:45:43.926Z,1460
2017-01-19T09:46:24.429Z,1456
2017-01-19T09:47:04.917Z,1464
2017-01-19T09:47:45.391Z,1472
2017-01-19T09:48:25.854Z,1464
2017-01-19T09:49:06.685Z,1464
2017-01-19T09:49:47.143Z,1448
2017-01-19T09:50:27.631Z,1480
2017-01-19T09:51:08.191Z,1452
2017-01-19T09:51:48.653Z,1468
2017-01-19T09:52:29.424Z,1464
2017-01-19T09:53:09.877Z,1472
2017-01-19T09:53:50.342Z,1484